createdAt,value
2022-08-26T00:00:01.143Z,8.23
2022-08-26T00:05:05.036Z,8.05
2022-08-26T00:10:08.575Z,7.82
2022-08-26T00:15:15.056Z,7.70
2022-08-26T00:20:23.044Z,7.53
2022-08-26T00:25:26.946Z,8.07
2022-08-26T00:30:31.140Z,7.90
2022-08-26T00:35:36.180Z,8.32
2022-08-26T00:40:48.790Z,7.90
2022-08-26T00:45:59.622Z,8.20
2022-08-26T00:51:15.605Z,7.85
2022-08-26T00:56:44.149Z,7.47
2022-08-26T01:01:49.825Z,7.97
2022-08-26T01:06:54.616Z,7.47
2022-08-26T01:12:00.060Z,8.13
2022-08-26T01:17:05.158Z,8.35
2022-08-26T01:22:22.567Z,8.50
2022-08-26T01:27:33.614Z,7.90
2022-08-26T01:32:38.937Z,8.05
2022-08-26T01:37:42.161Z,7.80
2022-08-26T01:42:45.527Z,8.40
2022-08-26T01:47:56.912Z,7.68
2022-08-26T01:53:07.108Z,7.97
2022-08-26T01:58:25.592Z,7.88
2022-08-26T02:03:30.164Z,7.57
2022-08-26T02:08:45.305Z,7.97
2022-08-26T02:18:54.617Z,8.10
2022-08-26T02:29:07.680Z,8.18
2022-08-26T02:34:13.735Z,7.75
2022-08-26T02:39:22.259Z,7.78
2022-08-26T02:44:25.520Z,7.82
2022-08-26T02:49:29.838Z,8.33
2022-08-26T02:54:32.508Z,9.70
2022-08-26T02:59:36.899Z,7.80
2022-08-26T03:04:40.606Z,8.05
2022-08-26T03:10:01.651Z,7.90
2022-08-26T03:15:17.634Z,7.97
2022-08-26T03:20:20.809Z,8.15
2022-08-26T03:25:24.020Z,8.38
2022-08-26T03:30:45.328Z,8.10
2022-08-26T03:35:50.516Z,8.40
2022-08-26T03:40:53.458Z,8.98
2022-08-26T03:45:56.147Z,8.30
2022-08-26T03:50:59.972Z,8.70
2022-08-26T03:56:07.365Z,9.60
2022-08-26T04:01:09.922Z,8.75
2022-08-26T04:06:13.388Z,9.45
2022-08-26T04:11:19.792Z,9.52
2022-08-26T04:16:22.669Z,9.75
2022-08-26T04:21:26.504Z,9.68
2022-08-26T04:26:29.488Z,9.60
2022-08-26T04:31:32.243Z,9.65
2022-08-26T04:36:35.723Z,9.90
2022-08-26T04:41:40.154Z,10.55
2022-08-26T04:51:47.958Z,9.27
2022-08-26T04:56:51.894Z,9.48
2022-08-26T05:01:58.116Z,10.02
2022-08-26T05:07:02.869Z,10.45
2022-08-26T05:12:06.005Z,10.20
2022-08-26T05:17:09.073Z,9.90
2022-08-26T05:22:13.263Z,9.07
2022-08-26T05:27:16.000Z,9.27
2022-08-26T05:32:20.383Z,9.13
2022-08-26T05:37:23.383Z,9.48
2022-08-26T05:42:26.352Z,9.13
2022-08-26T05:47:30.219Z,9.40
2022-08-26T05:52:35.704Z,10.82
2022-08-26T05:57:40.566Z,8.85
2022-08-26T06:02:48.408Z,9.57
2022-08-26T06:08:09.978Z,9.73
2022-08-26T06:13:13.661Z,9.77
2022-08-26T06:18:21.108Z,8.80
2022-08-26T06:23:55.903Z,9.18
2022-08-26T06:28:59.982Z,8.88
2022-08-26T06:34:10.546Z,8.68
2022-08-26T06:39:16.590Z,8.38
2022-08-26T06:44:19.501Z,8.82
2022-08-26T06:49:25.838Z,8.35
2022-08-26T06:54:33.198Z,8.52
2022-08-26T06:59:36.241Z,7.97
2022-08-26T07:04:39.479Z,8.80
2022-08-26T07:09:42.213Z,8.45
2022-08-26T07:14:47.478Z,7.93
2022-08-26T07:19:51.128Z,8.35
2022-08-26T07:24:55.737Z,8.68
2022-08-26T07:29:58.602Z,8.90
2022-08-26T07:35:01.309Z,8.57
2022-08-26T07:40:05.522Z,8.13
2022-08-26T07:45:08.739Z,8.57
2022-08-26T07:50:13.404Z,8.27
2022-08-26T07:55:18.490Z,8.25
2022-08-26T08:00:22.625Z,7.82
2022-08-26T08:05:33.563Z,8.15
2022-08-26T08:10:38.060Z,8.70
2022-08-26T08:15:41.757Z,8.68
2022-08-26T08:20:59.273Z,8.90
2022-08-26T08:26:10.149Z,8.83
2022-08-26T08:31:52.573Z,8.38
2022-08-26T08:36:50.108Z,9.52
2022-08-26T08:42:28.038Z,9.00
2022-08-26T08:47:36.728Z,9.63
2022-08-26T08:52:42.890Z,10.10
2022-08-26T08:58:03.289Z,9.65
2022-08-26T09:03:30.661Z,10.07
2022-08-26T09:08:36.687Z,9.63
2022-08-26T11:44:26.446Z,7.40
2022-08-26T11:49:32.815Z,7.32
2022-08-26T11:54:36.855Z,7.25
2022-08-26T11:59:42.407Z,7.15
2022-08-26T12:04:49.597Z,7.15
2022-08-26T12:10:02.273Z,7.15
2022-08-26T12:15:19.592Z,7.55
2022-08-26T12:20:49.152Z,7.05
2022-08-26T12:25:55.317Z,8.30
2022-08-26T12:31:03.993Z,7.63
2022-08-26T12:36:08.324Z,7.65
2022-08-26T12:41:11.696Z,7.60
2022-08-26T12:46:18.845Z,8.20
2022-08-26T12:51:27.775Z,7.93
2022-08-26T12:56:37.654Z,7.63
2022-08-26T13:01:45.582Z,7.95
2022-08-26T13:16:23.759Z,7.70
2022-08-26T13:26:12.933Z,8.25
2022-08-26T13:31:17.269Z,8.70
2022-08-26T13:36:21.875Z,8.05
2022-08-26T13:41:29.334Z,8.27
2022-08-26T13:46:33.657Z,8.02
2022-08-26T13:51:38.527Z,7.68
2022-08-26T14:01:50.021Z,7.72
2022-08-26T14:11:54.087Z,7.18
2022-08-26T14:21:43.733Z,7.93
2022-08-26T14:26:49.561Z,7.22
2022-08-26T14:41:32.337Z,7.22
2022-08-26T14:46:51.087Z,7.35
2022-08-26T14:51:55.224Z,7.55
2022-08-26T14:57:04.628Z,7.38
2022-08-26T15:44:59.615Z,7.88
2022-08-26T15:50:02.805Z,8.23
2022-08-26T15:55:06.988Z,7.88
2022-08-26T16:00:11.361Z,7.90
2022-08-26T16:05:14.590Z,6.90
2022-08-26T16:10:19.479Z,6.88
2022-08-26T16:15:22.744Z,8.02
2022-08-26T16:20:26.950Z,6.63
2022-08-26T16:25:31.334Z,6.57
2022-08-26T16:30:34.470Z,5.93
2022-08-26T16:35:37.889Z,6.38
2022-08-26T16:40:42.026Z,6.22
2022-08-26T16:45:45.167Z,6.65
2022-08-26T16:55:52.176Z,6.60
2022-08-26T17:00:55.548Z,6.70
2022-08-26T17:05:58.653Z,6.82
2022-08-26T17:11:02.952Z,7.38
2022-08-26T17:16:08.494Z,7.05
2022-08-26T17:21:14.196Z,7.57
2022-08-26T17:26:17.512Z,7.35
2022-08-26T17:31:22.412Z,9.02
2022-08-26T17:36:28.049Z,8.10
2022-08-26T17:41:31.603Z,8.10
2022-08-26T17:51:41.920Z,8.65
2022-08-26T17:56:45.005Z,8.60
2022-08-26T18:01:51.410Z,8.15
2022-08-26T18:11:57.926Z,8.57
2022-08-26T18:17:01.323Z,9.13
2022-08-26T18:22:04.546Z,10.15
2022-08-26T18:27:07.808Z,9.18
2022-08-26T18:32:11.189Z,9.65
2022-08-26T18:37:15.136Z,9.75
2022-08-26T18:42:18.179Z,9.95
2022-08-26T18:47:21.758Z,9.27
2022-08-26T18:52:24.932Z,9.93
2022-08-26T18:57:28.311Z,9.35
2022-08-26T19:02:31.687Z,11.27
2022-08-26T19:07:39.387Z,10.77
2022-08-26T19:12:43.295Z,10.60
2022-08-26T19:17:47.090Z,11.02
2022-08-26T19:22:50.262Z,12.98
2022-08-26T19:27:53.631Z,10.30
2022-08-26T19:32:56.949Z,11.23
2022-08-26T19:38:04.229Z,10.30
2022-08-26T19:43:08.045Z,11.10
2022-08-26T19:48:12.089Z,9.27
2022-08-26T19:53:16.183Z,9.85
2022-08-26T19:58:20.131Z,10.48
2022-08-26T20:08:29.385Z,10.00
2022-08-26T20:13:33.999Z,10.70
2022-08-26T20:18:55.402Z,10.20
2022-08-26T20:24:05.207Z,10.88
2022-08-26T20:29:09.905Z,9.88
2022-08-26T20:34:14.858Z,10.18
2022-08-26T20:39:21.700Z,10.27
2022-08-26T20:44:25.527Z,10.25
2022-08-26T20:49:29.510Z,10.35
2022-08-26T20:54:33.061Z,10.93
2022-08-26T20:59:36.293Z,11.43
2022-08-26T21:09:43.322Z,12.60
2022-08-26T21:14:49.547Z,11.57
2022-08-26T21:19:52.941Z,11.20
2022-08-26T21:24:56.286Z,12.25
2022-08-26T21:29:59.679Z,12.27
2022-08-26T21:35:03.142Z,12.03
2022-08-26T21:40:08.286Z,12.15
2022-08-26T21:45:11.735Z,12.52
2022-08-26T21:50:14.883Z,11.70
2022-08-26T21:55:18.069Z,11.90
2022-08-26T22:00:21.336Z,12.47
2022-08-26T22:05:24.377Z,11.83
2022-08-26T22:10:27.514Z,12.77
2022-08-26T22:15:32.607Z,12.55
2022-08-26T22:20:36.767Z,12.20
2022-08-26T22:25:40.176Z,10.95
2022-08-26T22:30:45.350Z,11.25
2022-08-26T22:35:51.479Z,11.55
2022-08-26T22:40:56.922Z,11.30
2022-08-26T22:46:00.464Z,10.45
2022-08-26T22:56:08.233Z,9.57
2022-08-26T23:01:11.413Z,10.23
2022-08-26T23:06:15.040Z,10.20
2022-08-26T23:11:18.249Z,9.60
2022-08-26T23:16:22.032Z,9.32
2022-08-26T23:26:29.158Z,10.23
2022-08-26T23:31:32.381Z,10.20
2022-08-26T23:36:35.511Z,9.40
2022-08-26T23:41:39.230Z,9.70
2022-08-26T23:46:42.324Z,10.48
2022-08-26T23:52:03.958Z,10.53
2022-08-26T23:57:08.814Z,10.15
